Terminal Aerodrome Forecast
Issued by NWS

Home | Current Version | Previous Version | Text Only | Print | Product List | Glossary On
Versions: 1 2 3 4 5 6 7 8 9 10 11 12 13 14 15 16 17
000
FTUS46 KLOX 261700
TAFWJF
TAF
KWJF 261726Z 2618/2718 23010KT P6SM BKN250
     FM262000 23020G28KT P6SM SCT150 BKN250
     FM270300 23015KT P6SM SCT250
     FM270900 24010KT P6SM SCT150
     FM271200 25005KT P6SM SCT120 BKN200=

USA.gov is the U.S. government's official web portal to all federal, state and local government web resources and services.